sensor_id;sensor_type;location;lat;lon;timestamp;temperature;humidity
49901;DHT22;35789;48.414;12.768;2023-08-20T00:00:00;18.8;99.9
49901;DHT22;35789;48.414;12.768;2023-08-20T00:05:00;18.8;99.9
49901;DHT22;35789;48.414;12.768;2023-08-20T00:10:00;18.8;99.9
49901;DHT22;35789;48.414;12.768;2023-08-20T00:15:01;18.8;99.9
49901;DHT22;35789;48.414;12.768;2023-08-20T00:20:00;18.8;99.9
49901;DHT22;35789;48.414;12.768;2023-08-20T00:25:00;18.8;99.9
49901;DHT22;35789;48.414;12.768;2023-08-20T00:30:00;18.7;99.9
49901;DHT22;35789;48.414;12.768;2023-08-20T00:35:00;18.6;99.9
49901;DHT22;35789;48.414;12.768;2023-08-20T00:40:00;18.5;99.9
49901;DHT22;35789;48.414;12.768;2023-08-20T00:45:00;18.5;99.9
49901;DHT22;35789;48.414;12.768;2023-08-20T00:50:00;18.5;99.9
49901;DHT22;35789;48.414;12.768;2023-08-20T00:55:00;18.4;99.9
49901;DHT22;35789;48.414;12.768;2023-08-20T01:00:00;18.4;99.9
49901;DHT22;35789;48.414;12.768;2023-08-20T01:05:00;18.4;99.9
49901;DHT22;35789;48.414;12.768;2023-08-20T01:10:03;18.4;99.9
49901;DHT22;35789;48.414;12.768;2023-08-20T01:15:00;18.4;99.9
49901;DHT22;35789;48.414;12.768;2023-08-20T01:20:00;18.3;99.9
49901;DHT22;35789;48.414;12.768;2023-08-20T01:25:04;18.3;99.9
49901;DHT22;35789;48.414;12.768;2023-08-20T01:30:00;18.3;99.9
49901;DHT22;35789;48.414;12.768;2023-08-20T01:35:00;18.3;99.9
49901;DHT22;35789;48.414;12.768;2023-08-20T01:40:00;18.2;99.9
49901;DHT22;35789;48.414;12.768;2023-08-20T01:45:00;18.2;99.9
49901;DHT22;35789;48.414;12.768;2023-08-20T01:50:00;18.1;99.9
49901;DHT22;35789;48.414;12.768;2023-08-20T01:55:00;18.1;99.9
49901;DHT22;35789;48.414;12.768;2023-08-20T02:00:00;18.0;99.9
49901;DHT22;35789;48.414;12.768;2023-08-20T02:05:00;18.0;99.9
49901;DHT22;35789;48.414;12.768;2023-08-20T02:10:00;18.0;99.9
49901;DHT22;35789;48.414;12.768;2023-08-20T02:15:00;18.0;99.9
49901;DHT22;35789;48.414;12.768;2023-08-20T02:20:00;18.1;99.9
49901;DHT22;35789;48.414;12.768;2023-08-20T02:25:00;18.0;99.9
49901;DHT22;35789;48.414;12.768;2023-08-20T02:30:00;18.0;99.9
49901;DHT22;35789;48.414;12.768;2023-08-20T02:35:00;17.9;99.9
49901;DHT22;35789;48.414;12.768;2023-08-20T02:40:00;17.8;99.9
49901;DHT22;35789;48.414;12.768;2023-08-20T02:45:00;17.8;99.9
49901;DHT22;35789;48.414;12.768;2023-08-20T02:50:00;17.8;99.9
49901;DHT22;35789;48.414;12.768;2023-08-20T02:55:00;17.8;99.9
49901;DHT22;35789;48.414;12.768;2023-08-20T03:00:00;17.8;99.9
49901;DHT22;35789;48.414;12.768;2023-08-20T03:05:00;17.8;99.9
49901;DHT22;35789;48.414;12.768;2023-08-20T03:10:00;17.8;99.9
49901;DHT22;35789;48.414;12.768;2023-08-20T03:15:00;17.7;99.9
49901;DHT22;35789;48.414;12.768;2023-08-20T03:20:00;17.6;99.9
49901;DHT22;35789;48.414;12.768;2023-08-20T03:25:00;17.5;99.9
49901;DHT22;35789;48.414;12.768;2023-08-20T03:30:00;17.5;99.9
49901;DHT22;35789;48.414;12.768;2023-08-20T03:35:00;17.6;99.9
49901;DHT22;35789;48.414;12.768;2023-08-20T03:40:00;17.5;99.9
49901;DHT22;35789;48.414;12.768;2023-08-20T03:45:00;17.5;99.9
49901;DHT22;35789;48.414;12.768;2023-08-20T03:50:00;17.6;99.9
49901;DHT22;35789;48.414;12.768;2023-08-20T03:55:00;17.5;99.9
49901;DHT22;35789;48.414;12.768;2023-08-20T04:00:00;17.5;99.9
49901;DHT22;35789;48.414;12.768;2023-08-20T04:05:00;17.4;99.9
49901;DHT22;35789;48.414;12.768;2023-08-20T04:10:00;17.5;99.9
49901;DHT22;35789;48.414;12.768;2023-08-20T04:15:00;17.6;99.9
49901;DHT22;35789;48.414;12.768;2023-08-20T04:20:00;17.5;99.9
49901;DHT22;35789;48.414;12.768;2023-08-20T04:25:00;17.4;99.9
49901;DHT22;35789;48.414;12.768;2023-08-20T04:30:00;17.5;99.9
49901;DHT22;35789;48.414;12.768;2023-08-20T04:35:00;17.5;99.9
49901;DHT22;35789;48.414;12.768;2023-08-20T04:40:00;17.5;99.9
49901;DHT22;35789;48.414;12.768;2023-08-20T04:45:00;17.5;99.9
49901;DHT22;35789;48.414;12.768;2023-08-20T04:50:00;17.5;99.9
49901;DHT22;35789;48.414;12.768;2023-08-20T04:55:00;17.5;99.9
49901;DHT22;35789;48.414;12.768;2023-08-20T05:00:00;17.6;99.9
49901;DHT22;35789;48.414;12.768;2023-08-20T05:05:01;17.6;99.9
49901;DHT22;35789;48.414;12.768;2023-08-20T05:10:00;17.7;99.9
49901;DHT22;35789;48.414;12.768;2023-08-20T05:15:00;17.8;99.9
49901;DHT22;35789;48.414;12.768;2023-08-20T05:20:00;17.8;99.9
49901;DHT22;35789;48.414;12.768;2023-08-20T05:25:00;17.8;99.9
49901;DHT22;35789;48.414;12.768;2023-08-20T05:30:00;17.9;99.9
49901;DHT22;35789;48.414;12.768;2023-08-20T05:35:00;17.9;99.9
49901;DHT22;35789;48.414;12.768;2023-08-20T05:40:00;18.0;99.9
49901;DHT22;35789;48.414;12.768;2023-08-20T05:45:00;18.1;99.9
49901;DHT22;35789;48.414;12.768;2023-08-20T05:50:00;18.1;99.9
49901;DHT22;35789;48.414;12.768;2023-08-20T05:55:00;18.2;99.9
49901;DHT22;35789;48.414;12.768;2023-08-20T06:00:00;18.3;99.9
49901;DHT22;35789;48.414;12.768;2023-08-20T06:05:00;18.4;99.9
49901;DHT22;35789;48.414;12.768;2023-08-20T06:10:00;18.5;99.9
49901;DHT22;35789;48.414;12.768;2023-08-20T06:15:00;18.6;99.9
49901;DHT22;35789;48.414;12.768;2023-08-20T06:20:00;18.8;99.9
49901;DHT22;35789;48.414;12.768;2023-08-20T06:25:00;18.9;99.9
49901;DHT22;35789;48.414;12.768;2023-08-20T06:30:00;19.0;99.9
49901;DHT22;35789;48.414;12.768;2023-08-20T06:35:00;19.0;99.9
49901;DHT22;35789;48.414;12.768;2023-08-20T06:40:00;19.0;99.9
49901;DHT22;35789;48.414;12.768;2023-08-20T06:45:00;19.2;99.9
49901;DHT22;35789;48.414;12.768;2023-08-20T06:50:00;19.2;99.9
49901;DHT22;35789;48.414;12.768;2023-08-20T06:55:00;19.3;99.9
49901;DHT22;35789;48.414;12.768;2023-08-20T07:00:00;19.4;99.9
49901;DHT22;35789;48.414;12.768;2023-08-20T07:05:00;19.4;99.9
49901;DHT22;35789;48.414;12.768;2023-08-20T07:10:00;19.5;99.9
49901;DHT22;35789;48.414;12.768;2023-08-20T07:15:00;19.6;99.9
49901;DHT22;35789;48.414;12.768;2023-08-20T07:20:00;19.7;99.9
49901;DHT22;35789;48.414;12.768;2023-08-20T07:25:00;19.8;99.9
49901;DHT22;35789;48.414;12.768;2023-08-20T07:30:00;19.8;99.9
49901;DHT22;35789;48.414;12.768;2023-08-20T07:35:00;20.1;99.9
49901;DHT22;35789;48.414;12.768;2023-08-20T07:40:00;20.4;99.9
49901;DHT22;35789;48.414;12.768;2023-08-20T07:45:00;20.4;99.9
49901;DHT22;35789;48.414;12.768;2023-08-20T07:50:00;20.5;99.9
49901;DHT22;35789;48.414;12.768;2023-08-20T07:55:00;20.6;99.9
49901;DHT22;35789;48.414;12.768;2023-08-20T08:00:00;20.7;99.9
49901;DHT22;35789;48.414;12.768;2023-08-20T08:05:00;20.8;99.9
49901;DHT22;35789;48.414;12.768;2023-08-20T08:10:00;20.9;99.9
49901;DHT22;35789;48.414;12.768;2023-08-20T08:15:00;21.3;99.9
49901;DHT22;35789;48.414;12.768;2023-08-20T08:20:00;21.4;99.9
49901;DHT22;35789;48.414;12.768;2023-08-20T08:25:00;21.8;99.9
49901;DHT22;35789;48.414;12.768;2023-08-20T08:30:00;22.0;99.9
49901;DHT22;35789;48.414;12.768;2023-08-20T08:35:00;22.3;99.9
49901;DHT22;35789;48.414;12.768;2023-08-20T08:40:00;22.3;99.9
49901;DHT22;35789;48.414;12.768;2023-08-20T08:45:00;22.2;99.9
49901;DHT22;35789;48.414;12.768;2023-08-20T08:50:00;22.4;99.9
49901;DHT22;35789;48.414;12.768;2023-08-20T08:55:00;22.3;99.9
49901;DHT22;35789;48.414;12.768;2023-08-20T09:00:00;22.3;99.9
49901;DHT22;35789;48.414;12.768;2023-08-20T09:05:00;22.7;99.9
49901;DHT22;35789;48.414;12.768;2023-08-20T09:10:00;22.9;99.9
49901;DHT22;35789;48.414;12.768;2023-08-20T09:15:00;23.2;99.9
49901;DHT22;35789;48.414;12.768;2023-08-20T09:20:00;23.3;99.9
49901;DHT22;35789;48.414;12.768;2023-08-20T09:25:00;23.5;99.9
49901;DHT22;35789;48.414;12.768;2023-08-20T09:30:00;23.5;99.9
49901;DHT22;35789;48.414;12.768;2023-08-20T09:35:00;23.5;99.9
49901;DHT22;35789;48.414;12.768;2023-08-20T09:40:00;23.6;99.9
49901;DHT22;35789;48.414;12.768;2023-08-20T09:45:00;23.8;99.9
49901;DHT22;35789;48.414;12.768;2023-08-20T09:50:00;24.7;99.9
49901;DHT22;35789;48.414;12.768;2023-08-20T09:55:00;24.4;99.9
49901;DHT22;35789;48.414;12.768;2023-08-20T10:00:00;24.2;99.9
49901;DHT22;35789;48.414;12.768;2023-08-20T10:05:00;24.1;99.9
49901;DHT22;35789;48.414;12.768;2023-08-20T10:10:00;24.3;99.9
49901;DHT22;35789;48.414;12.768;2023-08-20T10:15:00;24.5;99.9
49901;DHT22;35789;48.414;12.768;2023-08-20T10:20:00;24.9;99.9
49901;DHT22;35789;48.414;12.768;2023-08-20T10:25:00;25.4;99.9
49901;DHT22;35789;48.414;12.768;2023-08-20T10:30:00;25.9;99.9
49901;DHT22;35789;48.414;12.768;2023-08-20T10:35:00;25.6;99.9
49901;DHT22;35789;48.414;12.768;2023-08-20T10:40:00;25.9;99.6
49901;DHT22;35789;48.414;12.768;2023-08-20T10:45:00;25.7;99.9
49901;DHT22;35789;48.414;12.768;2023-08-20T10:50:00;25.5;99.9
49901;DHT22;35789;48.414;12.768;2023-08-20T10:55:00;25.9;99.4
49901;DHT22;35789;48.414;12.768;2023-08-20T11:00:01;26.1;99.9
49901;DHT22;35789;48.414;12.768;2023-08-20T11:05:00;26.6;99.9
49901;DHT22;35789;48.414;12.768;2023-08-20T11:10:00;26.6;97.7
49901;DHT22;35789;48.414;12.768;2023-08-20T11:15:00;26.7;98.6
49901;DHT22;35789;48.414;12.768;2023-08-20T11:20:00;26.7;99.6
49901;DHT22;35789;48.414;12.768;2023-08-20T11:25:00;27.2;96.9
49901;DHT22;35789;48.414;12.768;2023-08-20T11:30:00;27.1;96.2
49901;DHT22;35789;48.414;12.768;2023-08-20T11:35:00;27.0;95.2
49901;DHT22;35789;48.414;12.768;2023-08-20T11:40:00;27.3;98.6
49901;DHT22;35789;48.414;12.768;2023-08-20T11:45:00;27.5;97.0
49901;DHT22;35789;48.414;12.768;2023-08-20T11:50:02;27.4;97.0
49901;DHT22;35789;48.414;12.768;2023-08-20T11:55:00;28.0;95.2
49901;DHT22;35789;48.414;12.768;2023-08-20T12:00:01;27.8;94.2
49901;DHT22;35789;48.414;12.768;2023-08-20T12:05:00;28.0;94.7
49901;DHT22;35789;48.414;12.768;2023-08-20T12:10:06;27.9;95.8
49901;DHT22;35789;48.414;12.768;2023-08-20T12:15:00;28.2;96.0
49901;DHT22;35789;48.414;12.768;2023-08-20T12:20:00;28.7;94.6
49901;DHT22;35789;48.414;12.768;2023-08-20T12:25:00;28.5;92.1
49901;DHT22;35789;48.414;12.768;2023-08-20T12:30:00;28.4;95.0
49901;DHT22;35789;48.414;12.768;2023-08-20T12:35:00;28.4;94.4
49901;DHT22;35789;48.414;12.768;2023-08-20T12:40:00;28.5;93.1
49901;DHT22;35789;48.414;12.768;2023-08-20T12:45:00;28.3;94.5
49901;DHT22;35789;48.414;12.768;2023-08-20T12:50:00;28.4;94.1
49901;DHT22;35789;48.414;12.768;2023-08-20T12:55:00;28.6;92.7
49901;DHT22;35789;48.414;12.768;2023-08-20T13:00:00;28.7;92.8
49901;DHT22;35789;48.414;12.768;2023-08-20T13:05:00;28.8;93.3
49901;DHT22;35789;48.414;12.768;2023-08-20T13:10:00;28.6;93.3
49901;DHT22;35789;48.414;12.768;2023-08-20T13:15:00;28.4;92.5
49901;DHT22;35789;48.414;12.768;2023-08-20T13:20:00;28.1;92.0
49901;DHT22;35789;48.414;12.768;2023-08-20T13:25:00;28.3;91.6
49901;DHT22;35789;48.414;12.768;2023-08-20T13:30:00;28.3;90.9
49901;DHT22;35789;48.414;12.768;2023-08-20T13:35:00;28.2;91.4
49901;DHT22;35789;48.414;12.768;2023-08-20T13:40:00;28.1;93.0
49901;DHT22;35789;48.414;12.768;2023-08-20T13:45:00;28.4;85.8
49901;DHT22;35789;48.414;12.768;2023-08-20T13:50:00;28.4;90.7
49901;DHT22;35789;48.414;12.768;2023-08-20T13:55:00;28.5;89.4
49901;DHT22;35789;48.414;12.768;2023-08-20T14:00:00;28.5;90.2
49901;DHT22;35789;48.414;12.768;2023-08-20T14:05:00;28.1;89.5
49901;DHT22;35789;48.414;12.768;2023-08-20T14:10:00;27.8;92.4
49901;DHT22;35789;48.414;12.768;2023-08-20T14:15:00;28.0;91.0
49901;DHT22;35789;48.414;12.768;2023-08-20T14:20:00;27.8;92.0
49901;DHT22;35789;48.414;12.768;2023-08-20T14:25:00;27.8;91.7
49901;DHT22;35789;48.414;12.768;2023-08-20T14:30:00;27.5;93.0
49901;DHT22;35789;48.414;12.768;2023-08-20T14:35:00;27.5;92.4
49901;DHT22;35789;48.414;12.768;2023-08-20T14:40:00;27.8;90.6
49901;DHT22;35789;48.414;12.768;2023-08-20T14:45:00;27.8;91.6
49901;DHT22;35789;48.414;12.768;2023-08-20T14:50:00;27.8;91.4
49901;DHT22;35789;48.414;12.768;2023-08-20T14:55:00;27.8;90.0
49901;DHT22;35789;48.414;12.768;2023-08-20T15:00:00;27.7;92.2
49901;DHT22;35789;48.414;12.768;2023-08-20T15:05:00;27.6;90.1
49901;DHT22;35789;48.414;12.768;2023-08-20T15:10:00;27.7;90.2
49901;DHT22;35789;48.414;12.768;2023-08-20T15:15:00;27.5;90.5
49901;DHT22;35789;48.414;12.768;2023-08-20T15:20:00;27.6;90.4
49901;DHT22;35789;48.414;12.768;2023-08-20T15:25:00;27.4;91.4
49901;DHT22;35789;48.414;12.768;2023-08-20T15:30:00;27.3;88.4
49901;DHT22;35789;48.414;12.768;2023-08-20T15:35:00;27.5;89.1
49901;DHT22;35789;48.414;12.768;2023-08-20T15:40:00;27.4;89.2
49901;DHT22;35789;48.414;12.768;2023-08-20T15:45:00;27.5;90.5
49901;DHT22;35789;48.414;12.768;2023-08-20T15:50:00;27.6;88.8
49901;DHT22;35789;48.414;12.768;2023-08-20T15:55:00;27.4;90.7
49901;DHT22;35789;48.414;12.768;2023-08-20T16:00:00;27.3;91.0
49901;DHT22;35789;48.414;12.768;2023-08-20T16:05:00;27.1;92.9
49901;DHT22;35789;48.414;12.768;2023-08-20T16:10:00;27.0;92.9
49901;DHT22;35789;48.414;12.768;2023-08-20T16:15:00;26.7;94.6
49901;DHT22;35789;48.414;12.768;2023-08-20T16:20:00;26.6;94.1
49901;DHT22;35789;48.414;12.768;2023-08-20T16:25:00;26.5;93.6
49901;DHT22;35789;48.414;12.768;2023-08-20T16:30:00;26.7;93.9
49901;DHT22;35789;48.414;12.768;2023-08-20T16:35:00;26.5;93.0
49901;DHT22;35789;48.414;12.768;2023-08-20T16:40:00;26.6;92.9
49901;DHT22;35789;48.414;12.768;2023-08-20T16:45:00;26.4;93.4
49901;DHT22;35789;48.414;12.768;2023-08-20T16:50:00;26.3;92.2
49901;DHT22;35789;48.414;12.768;2023-08-20T16:55:00;26.1;93.5
49901;DHT22;35789;48.414;12.768;2023-08-20T17:00:00;26.0;95.0
49901;DHT22;35789;48.414;12.768;2023-08-20T17:05:00;26.0;94.6
49901;DHT22;35789;48.414;12.768;2023-08-20T17:10:00;25.8;94.5
49901;DHT22;35789;48.414;12.768;2023-08-20T17:15:00;25.8;95.3
49901;DHT22;35789;48.414;12.768;2023-08-20T17:20:00;25.5;96.9
49901;DHT22;35789;48.414;12.768;2023-08-20T17:25:00;25.4;98.0
49901;DHT22;35789;48.414;12.768;2023-08-20T17:30:00;25.2;98.3
49901;DHT22;35789;48.414;12.768;2023-08-20T17:35:00;25.0;99.6
49901;DHT22;35789;48.414;12.768;2023-08-20T17:40:00;24.8;99.9
49901;DHT22;35789;48.414;12.768;2023-08-20T17:45:00;24.6;99.9
49901;DHT22;35789;48.414;12.768;2023-08-20T17:50:00;24.5;99.8
49901;DHT22;35789;48.414;12.768;2023-08-20T17:55:00;24.3;99.9
49901;DHT22;35789;48.414;12.768;2023-08-20T18:00:00;24.2;99.6
49901;DHT22;35789;48.414;12.768;2023-08-20T18:05:00;24.0;99.8
49901;DHT22;35789;48.414;12.768;2023-08-20T18:10:01;23.9;99.9
49901;DHT22;35789;48.414;12.768;2023-08-20T18:15:00;23.7;99.9
49901;DHT22;35789;48.414;12.768;2023-08-20T18:20:00;23.5;99.9
49901;DHT22;35789;48.414;12.768;2023-08-20T18:25:00;23.3;99.9
49901;DHT22;35789;48.414;12.768;2023-08-20T18:30:00;23.2;99.9
49901;DHT22;35789;48.414;12.768;2023-08-20T18:35:00;22.9;99.9
49901;DHT22;35789;48.414;12.768;2023-08-20T18:40:00;22.8;99.9
49901;DHT22;35789;48.414;12.768;2023-08-20T18:45:00;22.6;99.9
49901;DHT22;35789;48.414;12.768;2023-08-20T18:50:00;22.6;99.9
49901;DHT22;35789;48.414;12.768;2023-08-20T18:55:00;22.5;99.9
49901;DHT22;35789;48.414;12.768;2023-08-20T19:00:00;22.4;99.9
49901;DHT22;35789;48.414;12.768;2023-08-20T19:05:00;22.3;99.9
49901;DHT22;35789;48.414;12.768;2023-08-20T19:10:00;22.2;99.9
49901;DHT22;35789;48.414;12.768;2023-08-20T19:15:00;22.0;99.9
49901;DHT22;35789;48.414;12.768;2023-08-20T19:20:00;21.8;99.9
49901;DHT22;35789;48.414;12.768;2023-08-20T19:25:00;21.7;99.9
49901;DHT22;35789;48.414;12.768;2023-08-20T19:30:00;21.6;99.9
49901;DHT22;35789;48.414;12.768;2023-08-20T19:35:00;21.6;99.9
49901;DHT22;35789;48.414;12.768;2023-08-20T19:40:00;21.5;99.9
49901;DHT22;35789;48.414;12.768;2023-08-20T19:45:00;21.3;99.9
49901;DHT22;35789;48.414;12.768;2023-08-20T19:50:00;21.2;99.9
49901;DHT22;35789;48.414;12.768;2023-08-20T19:55:00;21.1;99.9
49901;DHT22;35789;48.414;12.768;2023-08-20T20:00:00;21.1;99.9
49901;DHT22;35789;48.414;12.768;2023-08-20T20:05:00;21.0;99.9
49901;DHT22;35789;48.414;12.768;2023-08-20T20:10:00;20.9;99.9
49901;DHT22;35789;48.414;12.768;2023-08-20T20:15:00;20.9;99.9
49901;DHT22;35789;48.414;12.768;2023-08-20T20:20:00;20.7;99.9
49901;DHT22;35789;48.414;12.768;2023-08-20T20:25:00;20.7;99.9
49901;DHT22;35789;48.414;12.768;2023-08-20T20:30:01;20.6;99.9
49901;DHT22;35789;48.414;12.768;2023-08-20T20:35:00;20.5;99.9
49901;DHT22;35789;48.414;12.768;2023-08-20T20:40:00;20.5;99.9
49901;DHT22;35789;48.414;12.768;2023-08-20T20:45:00;20.4;99.9
49901;DHT22;35789;48.414;12.768;2023-08-20T20:50:00;20.3;99.9
49901;DHT22;35789;48.414;12.768;2023-08-20T20:55:00;20.3;99.9
49901;DHT22;35789;48.414;12.768;2023-08-20T21:00:02;20.2;99.9
49901;DHT22;35789;48.414;12.768;2023-08-20T21:05:00;20.0;99.9
49901;DHT22;35789;48.414;12.768;2023-08-20T21:10:00;20.0;99.9
49901;DHT22;35789;48.414;12.768;2023-08-20T21:15:00;20.0;99.9
49901;DHT22;35789;48.414;12.768;2023-08-20T21:20:00;20.0;99.9
49901;DHT22;35789;48.414;12.768;2023-08-20T21:25:00;19.9;99.9
49901;DHT22;35789;48.414;12.768;2023-08-20T21:30:00;19.8;99.9
49901;DHT22;35789;48.414;12.768;2023-08-20T21:35:00;19.8;99.9
49901;DHT22;35789;48.414;12.768;2023-08-20T21:40:00;19.7;99.9
49901;DHT22;35789;48.414;12.768;2023-08-20T21:45:00;19.5;99.9
49901;DHT22;35789;48.414;12.768;2023-08-20T21:50:00;19.6;99.9
49901;DHT22;35789;48.414;12.768;2023-08-20T21:55:00;19.6;99.9
49901;DHT22;35789;48.414;12.768;2023-08-20T22:00:00;19.4;99.9
49901;DHT22;35789;48.414;12.768;2023-08-20T22:10:00;19.4;99.9
49901;DHT22;35789;48.414;12.768;2023-08-20T22:15:00;19.4;99.9
49901;DHT22;35789;48.414;12.768;2023-08-20T22:20:00;19.4;99.9
49901;DHT22;35789;48.414;12.768;2023-08-20T22:25:00;19.4;99.9
49901;DHT22;35789;48.414;12.768;2023-08-20T22:30:00;19.3;99.9
49901;DHT22;35789;48.414;12.768;2023-08-20T22:35:00;19.2;99.9
49901;DHT22;35789;48.414;12.768;2023-08-20T22:40:00;19.2;99.9
49901;DHT22;35789;48.414;12.768;2023-08-20T22:45:00;19.1;99.9
49901;DHT22;35789;48.414;12.768;2023-08-20T22:50:00;19.0;99.9
49901;DHT22;35789;48.414;12.768;2023-08-20T22:55:00;19.0;99.9
49901;DHT22;35789;48.414;12.768;2023-08-20T23:00:00;19.0;99.9
49901;DHT22;35789;48.414;12.768;2023-08-20T23:05:00;19.0;99.9
49901;DHT22;35789;48.414;12.768;2023-08-20T23:10:00;19.0;99.9
49901;DHT22;35789;48.414;12.768;2023-08-20T23:15:00;18.7;99.9
49901;DHT22;35789;48.414;12.768;2023-08-20T23:20:00;18.8;99.9
49901;DHT22;35789;48.414;12.768;2023-08-20T23:25:00;18.7;99.9
49901;DHT22;35789;48.414;12.768;2023-08-20T23:30:00;18.7;99.9
49901;DHT22;35789;48.414;12.768;2023-08-20T23:35:00;18.6;99.9
49901;DHT22;35789;48.414;12.768;2023-08-20T23:40:00;18.4;99.9
49901;DHT22;35789;48.414;12.768;2023-08-20T23:45:00;18.5;99.9
49901;DHT22;35789;48.414;12.768;2023-08-20T23:50:00;18.6;99.9
49901;DHT22;35789;48.414;12.768;2023-08-20T23:55:00;18.5;99.9
